createdAt,value
2022-08-31T00:01:03.014Z,1.80
2022-08-31T00:03:50.460Z,1.67
2022-08-31T00:06:25.225Z,1.30
2022-08-31T00:08:59.596Z,1.52
2022-08-31T00:11:37.922Z,1.63
2022-08-31T00:14:14.061Z,1.80
2022-08-31T00:16:53.851Z,1.30
2022-08-31T00:19:28.056Z,1.42
2022-08-31T00:22:02.353Z,1.30
2022-08-31T00:24:36.670Z,1.70
2022-08-31T00:27:16.462Z,1.33
2022-08-31T00:29:50.733Z,1.35
2022-08-31T00:32:30.293Z,2.17
2022-08-31T00:35:08.049Z,1.50
2022-08-31T00:37:42.281Z,1.58
2022-08-31T00:40:17.822Z,1.20
2022-08-31T00:42:51.989Z,1.40
2022-08-31T00:45:26.201Z,1.45
2022-08-31T00:48:06.020Z,1.17
2022-08-31T00:50:40.547Z,1.48
2022-08-31T00:53:14.741Z,1.65
2022-08-31T00:55:49.062Z,1.38
2022-08-31T00:58:23.408Z,1.43
2022-08-31T01:00:57.739Z,1.30
2022-08-31T01:03:38.698Z,1.43
2022-08-31T01:06:15.164Z,1.25
2022-08-31T01:08:49.390Z,1.40
2022-08-31T01:11:23.602Z,1.48
2022-08-31T01:13:57.861Z,1.10
2022-08-31T01:16:33.381Z,1.45
2022-08-31T01:19:14.470Z,1.40
2022-08-31T01:21:49.930Z,1.05
2022-08-31T01:24:30.078Z,1.17
2022-08-31T01:27:05.762Z,1.17
2022-08-31T01:29:41.505Z,1.20
2022-08-31T01:32:15.773Z,1.50
2022-08-31T01:34:50.166Z,1.10
2022-08-31T01:37:29.192Z,1.27
2022-08-31T01:40:09.411Z,1.23
2022-08-31T01:42:43.591Z,1.30
2022-08-31T01:45:18.665Z,1.27
2022-08-31T01:47:52.947Z,1.00
2022-08-31T01:50:27.280Z,1.10
2022-08-31T01:53:01.401Z,1.30
2022-08-31T01:55:41.410Z,1.50
2022-08-31T01:58:15.719Z,1.02
2022-08-31T02:00:50.063Z,1.30
2022-08-31T02:03:24.206Z,1.60
2022-08-31T02:08:30.411Z,1.30
2022-08-31T02:11:10.349Z,1.25
2022-08-31T02:13:44.830Z,1.40
2022-08-31T02:16:19.111Z,1.38
2022-08-31T02:18:53.284Z,1.20
2022-08-31T02:21:27.905Z,1.33
2022-08-31T02:24:02.214Z,1.00
2022-08-31T02:26:41.946Z,1.63
2022-08-31T02:29:16.374Z,1.45
2022-08-31T02:31:50.836Z,1.50
2022-08-31T02:34:25.274Z,1.05
2022-08-31T02:36:59.590Z,1.20
2022-08-31T02:39:34.022Z,1.80
2022-08-31T02:42:13.965Z,1.30
2022-08-31T02:44:48.477Z,1.42
2022-08-31T02:47:22.666Z,1.02
2022-08-31T02:49:56.837Z,1.20
2022-08-31T02:52:31.193Z,1.00
2022-08-31T02:55:05.113Z,1.40
2022-08-31T02:57:44.352Z,1.42
2022-08-31T03:00:19.079Z,2.03
2022-08-31T03:02:53.063Z,1.20
2022-08-31T03:05:27.138Z,1.02
2022-08-31T03:08:01.035Z,1.48
2022-08-31T03:10:35.108Z,1.17
2022-08-31T03:13:14.384Z,1.40
2022-08-31T03:15:50.021Z,1.60
2022-08-31T03:18:23.993Z,1.30
2022-08-31T03:20:58.013Z,1.23
2022-08-31T03:23:31.909Z,1.55
2022-08-31T03:26:06.763Z,1.35
2022-08-31T03:28:45.974Z,1.45
2022-08-31T03:31:20.025Z,1.30
2022-08-31T03:33:54.065Z,1.20
2022-08-31T03:36:28.424Z,1.35
2022-08-31T03:39:02.920Z,1.60
2022-08-31T03:41:37.334Z,1.17
2022-08-31T03:44:17.120Z,1.40
2022-08-31T03:46:51.453Z,1.20
2022-08-31T03:49:25.954Z,1.50
2022-08-31T03:52:00.319Z,1.48
2022-08-31T03:54:34.661Z,1.27
2022-08-31T03:57:09.082Z,1.70
2022-08-31T03:59:48.972Z,1.50
2022-08-31T04:02:23.532Z,1.50
2022-08-31T04:04:58.009Z,1.30
2022-08-31T04:07:38.370Z,1.53
2022-08-31T04:10:17.677Z,1.48
2022-08-31T04:12:51.990Z,1.58
2022-08-31T04:15:31.927Z,1.70
2022-08-31T04:18:09.123Z,1.50
2022-08-31T04:20:43.886Z,1.52
2022-08-31T04:23:18.488Z,1.40
2022-08-31T04:25:53.178Z,1.70
2022-08-31T04:28:27.651Z,1.55
2022-08-31T04:31:10.303Z,1.42
2022-08-31T04:33:47.961Z,1.65
2022-08-31T04:36:23.844Z,1.73
2022-08-31T04:39:03.406Z,1.80
2022-08-31T04:41:47.662Z,1.63
2022-08-31T04:44:35.353Z,1.70
2022-08-31T04:47:15.775Z,1.50
2022-08-31T04:49:59.201Z,1.52
2022-08-31T04:52:35.595Z,1.40
2022-08-31T04:55:10.127Z,1.70
2022-08-31T04:58:03.563Z,1.95
2022-08-31T05:00:47.484Z,1.50
2022-08-31T05:03:30.419Z,2.00
2022-08-31T05:06:05.121Z,1.73
2022-08-31T05:08:39.678Z,2.22
2022-08-31T05:11:19.036Z,1.55
2022-08-31T05:13:56.575Z,1.65
2022-08-31T05:16:34.791Z,1.70
2022-08-31T05:19:15.483Z,1.70
2022-08-31T05:21:53.243Z,2.28
2022-08-31T05:24:36.948Z,2.22
2022-08-31T05:27:12.041Z,1.85
2022-08-31T05:29:46.776Z,2.10
2022-08-31T05:32:22.864Z,2.20
2022-08-31T05:35:05.437Z,2.53
2022-08-31T05:37:40.588Z,1.83
2022-08-31T05:40:19.760Z,1.92
2022-08-31T05:42:54.991Z,1.75
2022-08-31T05:45:30.212Z,2.42
2022-08-31T05:50:45.192Z,1.95
2022-08-31T05:53:19.795Z,2.38
2022-08-31T05:55:54.441Z,2.40
2022-08-31T05:58:37.588Z,2.40
2022-08-31T06:01:11.963Z,2.10
2022-08-31T06:03:48.288Z,1.75
2022-08-31T06:06:27.904Z,1.95
2022-08-31T06:09:02.194Z,2.30
2022-08-31T06:11:37.084Z,2.45
2022-08-31T06:14:12.059Z,1.98
2022-08-31T06:16:49.160Z,1.70
2022-08-31T06:19:23.108Z,1.80
2022-08-31T06:22:02.480Z,1.75
2022-08-31T06:24:38.111Z,1.80
2022-08-31T06:27:12.307Z,1.50
2022-08-31T06:29:46.376Z,1.88
2022-08-31T06:32:21.054Z,1.80
2022-08-31T06:34:55.046Z,1.92
2022-08-31T06:37:34.429Z,2.22
2022-08-31T06:40:08.519Z,1.80
2022-08-31T06:42:42.624Z,2.10
2022-08-31T06:45:17.736Z,2.00
2022-08-31T06:47:51.738Z,1.83
2022-08-31T06:50:25.787Z,1.60
2022-08-31T06:53:05.018Z,1.60
2022-08-31T06:55:39.161Z,1.67
2022-08-31T06:58:13.098Z,1.90
2022-08-31T07:00:48.093Z,1.85
2022-08-31T07:03:34.325Z,1.65
2022-08-31T07:08:53.070Z,2.20
2022-08-31T07:11:28.681Z,2.10
2022-08-31T07:14:03.287Z,2.08
2022-08-31T07:16:37.612Z,2.03
2022-08-31T07:19:12.509Z,2.85
2022-08-31T07:21:47.644Z,1.90
2022-08-31T07:24:28.830Z,1.95
2022-08-31T07:27:05.373Z,2.13
2022-08-31T07:29:43.964Z,1.52
2022-08-31T07:32:19.312Z,1.92
2022-08-31T07:34:58.598Z,2.25
2022-08-31T07:37:47.582Z,2.05
2022-08-31T07:40:41.718Z,1.85
2022-08-31T07:43:15.872Z,2.30
2022-08-31T07:45:51.446Z,2.22
2022-08-31T07:48:25.526Z,2.15
2022-08-31T07:50:59.568Z,2.50
2022-08-31T07:53:33.705Z,1.98
2022-08-31T07:56:16.205Z,2.13
2022-08-31T07:58:51.156Z,2.47
2022-08-31T08:01:25.321Z,1.88
2022-08-31T08:04:00.671Z,2.15
2022-08-31T08:06:34.704Z,1.95
2022-08-31T08:09:24.207Z,1.83
2022-08-31T08:12:07.529Z,2.08
2022-08-31T08:14:41.990Z,2.00
2022-08-31T08:17:18.901Z,1.65
2022-08-31T08:19:52.865Z,1.83
2022-08-31T08:22:50.462Z,1.88
2022-08-31T08:25:25.692Z,2.20
2022-08-31T08:28:22.852Z,1.90
2022-08-31T08:31:02.409Z,2.22
2022-08-31T08:33:36.723Z,2.28
2022-08-31T08:36:13.787Z,2.20
2022-08-31T08:38:48.526Z,2.40
2022-08-31T08:41:24.321Z,1.75
2022-08-31T08:44:04.599Z,1.92
2022-08-31T08:46:41.268Z,1.98
2022-08-31T08:49:24.774Z,2.13
2022-08-31T08:52:00.292Z,2.90
2022-08-31T08:54:39.730Z,1.83
2022-08-31T08:57:17.346Z,2.20
2022-08-31T08:59:56.765Z,2.03
2022-08-31T09:02:33.514Z,2.10
2022-08-31T09:05:36.509Z,2.40
2022-08-31T09:08:24.496Z,2.17
2022-08-31T09:11:07.469Z,2.17
2022-08-31T09:13:44.869Z,2.10
2022-08-31T09:16:29.409Z,1.92
2022-08-31T09:19:05.505Z,2.20
2022-08-31T09:21:41.277Z,2.35
2022-08-31T09:24:16.830Z,2.58
2022-08-31T09:27:01.313Z,2.55
2022-08-31T09:29:37.313Z,2.40
2022-08-31T09:32:19.067Z,2.80
2022-08-31T09:35:00.106Z,2.03
2022-08-31T09:37:35.145Z,2.00
2022-08-31T09:40:23.627Z,2.78
2022-08-31T09:43:08.754Z,2.60
2022-08-31T09:45:45.857Z,2.67
2022-08-31T09:48:44.529Z,2.65
2022-08-31T09:51:27.216Z,3.05
2022-08-31T09:54:15.074Z,2.80
2022-08-31T09:56:56.943Z,2.50
2022-08-31T09:59:43.128Z,2.45
2022-08-31T10:02:19.645Z,3.10
2022-08-31T10:05:05.345Z,2.50
2022-08-31T10:07:44.296Z,2.85
2022-08-31T10:10:30.982Z,2.65
2022-08-31T10:13:08.172Z,3.15
2022-08-31T10:15:45.883Z,2.92
2022-08-31T10:18:21.613Z,3.15
2022-08-31T10:21:07.791Z,2.75
2022-08-31T10:23:55.259Z,2.85
2022-08-31T10:26:35.120Z,2.60
2022-08-31T10:29:10.407Z,2.95
2022-08-31T10:31:48.376Z,3.03
2022-08-31T10:34:38.891Z,2.70
2022-08-31T10:37:19.024Z,2.90
2022-08-31T10:39:54.384Z,2.65
2022-08-31T10:42:31.058Z,2.42
2022-08-31T10:45:08.981Z,2.60
2022-08-31T10:47:44.307Z,2.47
2022-08-31T10:50:21.342Z,2.90
2022-08-31T10:53:07.793Z,3.25
2022-08-31T10:55:44.628Z,2.92
2022-08-31T10:58:21.748Z,2.53
2022-08-31T11:00:58.350Z,3.13
2022-08-31T11:03:43.816Z,2.80
2022-08-31T11:06:20.649Z,2.67
2022-08-31T11:09:03.199Z,2.30
2022-08-31T11:11:43.732Z,2.85
2022-08-31T11:14:59.568Z,3.13
2022-08-31T11:17:51.102Z,2.47
2022-08-31T11:20:42.023Z,2.28
2022-08-31T11:23:43.054Z,2.60
2022-08-31T11:26:52.017Z,2.40
2022-08-31T11:29:44.278Z,2.45
2022-08-31T11:32:26.690Z,2.50
2022-08-31T11:35:04.796Z,2.70
2022-08-31T11:38:01.708Z,2.83
2022-08-31T11:41:18.447Z,2.15
2022-08-31T11:43:58.889Z,2.80
2022-08-31T11:46:54.188Z,2.63
2022-08-31T11:49:51.059Z,2.75
2022-08-31T11:52:37.078Z,2.72
2022-08-31T11:55:33.586Z,2.60
2022-08-31T11:58:39.449Z,3.00
2022-08-31T12:01:45.136Z,2.60
2022-08-31T12:04:58.480Z,2.83
2022-08-31T12:07:34.059Z,2.85
2022-08-31T12:10:25.480Z,2.42
2022-08-31T12:13:33.564Z,2.60
2022-08-31T12:16:37.557Z,2.42
2022-08-31T12:20:03.557Z,3.33
2022-08-31T12:23:30.002Z,3.55
2022-08-31T12:26:13.018Z,3.05
2022-08-31T12:29:13.002Z,3.58
2022-08-31T12:31:47.550Z,2.85
2022-08-31T12:34:26.905Z,3.00
2022-08-31T12:37:02.003Z,2.85
2022-08-31T12:42:11.065Z,2.95
2022-08-31T12:44:51.374Z,2.70
2022-08-31T12:47:28.756Z,2.83
2022-08-31T12:50:17.925Z,3.25
2022-08-31T12:53:10.180Z,2.70
2022-08-31T12:55:46.610Z,2.65
2022-08-31T12:58:29.276Z,2.92
2022-08-31T13:01:11.621Z,2.28
2022-08-31T13:03:54.097Z,2.22
2022-08-31T13:06:37.373Z,2.38
2022-08-31T13:09:11.833Z,2.42
2022-08-31T13:11:46.721Z,2.40
2022-08-31T13:14:24.030Z,2.10
2022-08-31T13:16:59.711Z,2.42
2022-08-31T13:19:35.782Z,2.47
2022-08-31T13:22:18.324Z,2.50
2022-08-31T13:24:54.338Z,2.45
2022-08-31T13:27:29.301Z,2.25
2022-08-31T13:30:19.505Z,2.33
2022-08-31T13:32:55.659Z,2.20
2022-08-31T13:35:38.240Z,2.38
2022-08-31T13:38:18.517Z,2.45
2022-08-31T13:40:56.964Z,2.05
2022-08-31T13:43:33.426Z,2.33
2022-08-31T13:46:10.827Z,2.08
2022-08-31T13:48:44.999Z,2.17
2022-08-31T13:51:24.186Z,2.58
2022-08-31T13:54:31.570Z,2.60
2022-08-31T13:57:23.781Z,2.33
2022-08-31T13:59:57.843Z,2.08
2022-08-31T14:02:40.271Z,2.05
2022-08-31T14:05:15.223Z,2.42
2022-08-31T14:08:10.855Z,2.28
2022-08-31T14:10:52.736Z,2.30
2022-08-31T14:13:28.844Z,2.60
2022-08-31T14:16:04.071Z,2.33
2022-08-31T14:18:49.199Z,1.95
2022-08-31T14:21:25.304Z,2.13
2022-08-31T14:24:02.374Z,2.40
2022-08-31T14:26:43.140Z,2.13
2022-08-31T14:29:18.364Z,2.97
2022-08-31T14:31:54.735Z,2.53
2022-08-31T14:34:33.184Z,2.03
2022-08-31T14:37:08.905Z,2.30
2022-08-31T14:39:43.665Z,2.33
2022-08-31T14:42:26.646Z,2.30
2022-08-31T14:45:01.644Z,2.10
2022-08-31T14:47:37.371Z,2.03
2022-08-31T14:50:12.593Z,2.05
2022-08-31T14:52:50.627Z,2.30
2022-08-31T14:55:25.069Z,2.03
2022-08-31T14:58:06.330Z,2.40
2022-08-31T15:00:47.658Z,1.88
2022-08-31T15:03:25.483Z,2.08
2022-08-31T15:06:04.237Z,2.07
2022-08-31T15:08:39.172Z,1.85
2022-08-31T15:11:13.281Z,1.95
2022-08-31T15:13:53.600Z,2.10
2022-08-31T15:16:31.581Z,2.10
2022-08-31T15:19:14.728Z,1.88
2022-08-31T15:22:02.771Z,1.77
2022-08-31T15:24:37.536Z,1.80
2022-08-31T15:27:16.106Z,1.87
2022-08-31T15:30:05.534Z,2.20
2022-08-31T15:32:44.777Z,2.35
2022-08-31T15:35:19.351Z,1.80
2022-08-31T15:37:57.502Z,2.05
2022-08-31T15:40:37.749Z,2.35
2022-08-31T15:43:16.442Z,1.88
2022-08-31T15:45:55.727Z,1.85
2022-08-31T15:48:42.788Z,1.80
2022-08-31T15:51:24.734Z,1.88
2022-08-31T15:54:18.798Z,1.75
2022-08-31T15:56:54.349Z,1.67
2022-08-31T15:59:29.254Z,1.88
2022-08-31T16:02:08.718Z,2.03
2022-08-31T16:04:44.500Z,1.80
2022-08-31T16:07:18.661Z,1.60
2022-08-31T16:09:52.626Z,1.90
2022-08-31T16:12:28.618Z,1.90
2022-08-31T16:15:02.786Z,1.98
2022-08-31T16:17:42.092Z,1.30
2022-08-31T16:20:18.231Z,1.80
2022-08-31T16:22:52.229Z,1.90
2022-08-31T16:25:29.120Z,1.70
2022-08-31T16:28:03.768Z,1.27
2022-08-31T16:30:37.772Z,2.00
2022-08-31T16:33:17.133Z,1.52
2022-08-31T16:35:51.786Z,1.98
2022-08-31T16:38:25.931Z,1.90
2022-08-31T16:40:59.947Z,2.00
2022-08-31T16:43:33.963Z,1.60
2022-08-31T16:46:30.419Z,1.75
2022-08-31T16:49:22.809Z,1.77
2022-08-31T16:51:57.051Z,1.45
2022-08-31T16:54:31.059Z,1.47
2022-08-31T16:57:05.140Z,1.83
2022-08-31T16:59:39.275Z,2.00
2022-08-31T17:02:13.383Z,1.50
2022-08-31T17:04:53.927Z,1.38
2022-08-31T17:07:29.504Z,1.33
2022-08-31T17:12:44.363Z,1.35
2022-08-31T17:15:18.459Z,1.52
2022-08-31T17:17:52.752Z,1.40
2022-08-31T17:20:32.312Z,1.70
2022-08-31T17:23:10.863Z,1.85
2022-08-31T17:25:44.925Z,1.70
2022-08-31T17:28:24.479Z,1.60
2022-08-31T17:30:59.063Z,1.48
2022-08-31T17:33:33.127Z,1.35
2022-08-31T17:36:13.007Z,1.70
2022-08-31T17:38:47.072Z,1.70
2022-08-31T17:41:21.125Z,1.45
2022-08-31T17:43:58.341Z,1.63
2022-08-31T17:46:34.484Z,1.42
2022-08-31T17:49:10.004Z,1.65
2022-08-31T17:51:51.781Z,1.75
2022-08-31T17:54:28.995Z,1.58
2022-08-31T17:57:03.274Z,1.40
2022-08-31T17:59:38.198Z,1.40
2022-08-31T18:02:14.154Z,1.83
2022-08-31T18:04:48.920Z,1.42
2022-08-31T18:07:28.606Z,1.73
2022-08-31T18:10:04.573Z,1.60
2022-08-31T18:12:42.338Z,1.52
2022-08-31T18:15:20.267Z,1.20
2022-08-31T18:17:54.552Z,1.48
2022-08-31T18:20:29.716Z,1.40
2022-08-31T18:25:43.988Z,1.50
2022-08-31T18:28:19.544Z,2.60
2022-08-31T18:30:54.046Z,1.35
2022-08-31T18:33:29.141Z,1.40
2022-08-31T18:36:03.858Z,1.70
2022-08-31T18:38:43.599Z,1.30
2022-08-31T18:41:33.707Z,1.33
2022-08-31T18:44:20.996Z,1.20
2022-08-31T18:46:55.492Z,1.23
2022-08-31T18:49:30.002Z,1.50
2022-08-31T18:52:04.573Z,1.20
2022-08-31T18:54:44.331Z,1.30
2022-08-31T18:57:18.889Z,1.20
2022-08-31T18:59:53.176Z,1.30
2022-08-31T19:02:28.326Z,1.10
2022-08-31T19:05:03.157Z,1.38
2022-08-31T19:07:37.503Z,1.00
2022-08-31T19:10:17.952Z,0.97
2022-08-31T19:12:53.134Z,1.40
2022-08-31T19:18:10.758Z,1.10
2022-08-31T19:20:46.744Z,1.30
2022-08-31T19:23:21.453Z,1.10
2022-08-31T19:26:01.898Z,0.88
2022-08-31T19:28:36.465Z,1.02
2022-08-31T19:31:11.701Z,1.00
2022-08-31T19:33:46.042Z,1.15
2022-08-31T19:36:20.630Z,1.33
2022-08-31T19:38:55.133Z,2.10
2022-08-31T19:41:35.879Z,1.50
2022-08-31T19:44:11.959Z,1.52
2022-08-31T19:46:54.376Z,1.80
2022-08-31T19:49:31.068Z,1.20
2022-08-31T19:52:06.869Z,1.00
2022-08-31T19:54:41.976Z,1.00
2022-08-31T19:57:24.499Z,1.27
2022-08-31T19:59:58.865Z,1.10
2022-08-31T20:02:33.058Z,1.30
2022-08-31T20:05:07.339Z,1.00
2022-08-31T20:07:42.578Z,1.20
2022-08-31T20:12:57.345Z,0.88
2022-08-31T20:15:31.520Z,1.30
2022-08-31T20:18:07.070Z,1.00
2022-08-31T20:20:46.919Z,1.05
2022-08-31T20:23:22.536Z,1.10
2022-08-31T20:25:57.709Z,1.05
2022-08-31T20:28:40.725Z,1.15
2022-08-31T20:31:18.130Z,1.50
2022-08-31T20:33:52.742Z,1.10
2022-08-31T20:36:28.914Z,1.30
2022-08-31T20:39:04.274Z,1.13
2022-08-31T20:41:39.237Z,1.13
2022-08-31T20:44:19.855Z,1.30
2022-08-31T20:47:07.779Z,1.63
2022-08-31T20:49:44.637Z,1.17
2022-08-31T20:52:20.535Z,1.30
2022-08-31T20:55:01.342Z,1.13
2022-08-31T20:57:37.022Z,1.98
2022-08-31T21:00:20.485Z,1.10
2022-08-31T21:02:54.637Z,1.02
2022-08-31T21:05:39.242Z,1.35
2022-08-31T21:08:13.413Z,1.50
2022-08-31T21:10:47.412Z,0.93
2022-08-31T21:13:21.571Z,1.05
2022-08-31T21:16:00.938Z,1.02
2022-08-31T21:18:35.137Z,1.20
2022-08-31T21:21:09.984Z,1.15
2022-08-31T21:23:44.250Z,1.40
2022-08-31T21:26:25.421Z,1.10
2022-08-31T21:29:00.871Z,1.50
2022-08-31T21:31:47.897Z,1.30
2022-08-31T21:34:24.503Z,1.17
2022-08-31T21:36:58.514Z,1.52
2022-08-31T21:39:33.478Z,1.60
2022-08-31T21:42:07.521Z,1.23
2022-08-31T21:44:41.669Z,1.40
2022-08-31T21:47:21.136Z,1.38
2022-08-31T21:49:55.068Z,1.15
2022-08-31T21:52:29.366Z,0.90
2022-08-31T21:55:06.688Z,1.00
2022-08-31T21:57:42.002Z,1.00
2022-08-31T22:00:21.921Z,1.10
2022-08-31T22:03:01.575Z,1.13
2022-08-31T22:05:35.635Z,1.92
2022-08-31T22:08:09.953Z,1.17
2022-08-31T22:10:46.507Z,1.63
2022-08-31T22:13:21.559Z,1.42
2022-08-31T22:15:56.402Z,1.42
2022-08-31T22:19:00.156Z,1.60
2022-08-31T22:21:35.264Z,1.45
2022-08-31T22:24:12.164Z,1.40
2022-08-31T22:29:29.763Z,1.50
2022-08-31T22:32:04.710Z,1.38
2022-08-31T22:34:44.017Z,1.38
2022-08-31T22:37:18.142Z,1.30
2022-08-31T22:39:56.538Z,1.20
2022-08-31T22:42:30.570Z,1.35
2022-08-31T22:45:04.503Z,1.38
2022-08-31T22:47:49.387Z,1.60
2022-08-31T22:50:29.332Z,1.23
2022-08-31T22:53:03.228Z,1.27
2022-08-31T22:55:37.221Z,1.30
2022-08-31T22:58:11.369Z,1.30
2022-08-31T23:00:49.720Z,1.45
2022-08-31T23:03:24.352Z,1.25
2022-08-31T23:06:04.236Z,1.40
2022-08-31T23:08:40.272Z,1.85
2022-08-31T23:11:16.248Z,1.40
2022-08-31T23:14:02.839Z,1.25
2022-08-31T23:16:40.666Z,1.27
2022-08-31T23:21:57.706Z,1.30
2022-08-31T23:24:33.556Z,1.13
2022-08-31T23:27:11.005Z,1.13
2022-08-31T23:29:48.726Z,1.35
2022-08-31T23:32:24.046Z,1.50
2022-08-31T23:34:58.288Z,1.38
2022-08-31T23:37:39.048Z,1.43
2022-08-31T23:40:14.055Z,1.42
2022-08-31T23:42:48.089Z,1.17
2022-08-31T23:45:22.106Z,1.30
2022-08-31T23:47:58.775Z,1.27
2022-08-31T23:50:32.792Z,1.00
2022-08-31T23:53:18.522Z,1.00
2022-08-31T23:58:26.778Z,1.08
